Time;durP1;ratioP1;P1;durP2;ratioP2;P2;SDS_P1;SDS_P2;PMS_P1;PMS_P2;Temp;Humidity;BMP_temperature;BMP_pressure;BME280_temperature;BME280_humidity;BME280_pressure;Samples;Min_cycle;Max_cycle;Signal;HPM_P1;HPM_P2
2023/10/06 00:00:40;;;;;;;6.60;1.95;;;;;;;;;;5056004;28;20024;-71
2023/10/06 00:03:06;;;;;;;5.85;2.10;;;;;;;;;;5056268;28;20021;-71
2023/10/06 00:05:34;;;;;;;7.75;2.35;;;;;;;;;;5054329;28;20035;-71
2023/10/06 00:08:00;;;;;;;5.15;1.90;;;;;;;;;;5055517;28;20442;-71
2023/10/06 00:10:31;;;;;;;4.18;2.10;;;;;;;;;;5055430;28;20025;-71
2023/10/06 00:12:58;;;;;;;7.88;2.25;;;;;;;;;;5055441;28;20042;-71
2023/10/06 00:15:40;;;;;;;11.98;2.33;;;;;;;;;;5055603;28;20017;-72
2023/10/06 00:18:16;;;;;;;6.05;2.30;;;;;;;;;;5055807;28;20108;-71
2023/10/06 00:20:48;;;;;;;7.72;2.47;;;;;;;;;;5055267;28;20017;-71
2023/10/06 00:23:14;;;;;;;3.55;2.28;;;;;;;;;;5055313;28;20438;-71
2023/10/06 00:25:44;;;;;;;5.63;2.40;;;;;;;;;;5055506;28;20103;-71
2023/10/06 00:28:19;;;;;;;6.15;2.13;;;;;;;;;;5053927;28;20025;-71
2023/10/06 00:30:48;;;;;;;4.75;2.30;;;;;;;;;;5055139;28;20029;-71
2023/10/06 00:33:14;;;;;;;6.22;2.08;;;;;;;;;;5055012;28;20108;-71
2023/10/06 00:35:41;;;;;;;9.20;2.47;;;;;;;;;;5055195;28;20093;-71
2023/10/06 00:38:18;;;;;;;5.57;2.20;;;;;;;;;;5055008;28;20020;-71
2023/10/06 00:40:54;;;;;;;5.40;2.28;;;;;;;;;;5055155;28;20100;-70
2023/10/06 00:43:37;;;;;;;5.45;2.15;;;;;;;;;;5053651;28;20495;-71
2023/10/06 00:46:06;;;;;;;4.50;2.10;;;;;;;;;;5055106;28;20105;-71
2023/10/06 00:48:32;;;;;;;4.55;2.20;;;;;;;;;;5053410;28;20488;-70
2023/10/06 00:51:01;;;;;;;7.28;2.00;;;;;;;;;;5053203;28;20553;-71
2023/10/06 00:53:35;;;;;;;4.68;2.08;;;;;;;;;;5054906;28;20100;-71
2023/10/06 00:56:10;;;;;;;5.35;2.33;;;;;;;;;;5054640;28;20032;-70
2023/10/06 00:58:39;;;;;;;5.45;2.00;;;;;;;;;;5054594;28;20067;-71
2023/10/06 01:01:07;;;;;;;6.35;2.42;;;;;;;;;;5053982;28;20058;-71
2023/10/06 01:03:41;;;;;;;7.25;2.17;;;;;;;;;;5053182;28;20038;-70
2023/10/06 01:06:12;;;;;;;6.05;1.90;;;;;;;;;;5053200;28;20100;-71
2023/10/06 01:08:39;;;;;;;5.15;2.15;;;;;;;;;;5054410;28;20633;-71
2023/10/06 01:11:11;;;;;;;4.38;2.13;;;;;;;;;;5052988;28;20063;-70
2023/10/06 01:13:55;;;;;;;5.55;2.10;;;;;;;;;;5054602;28;20139;-70
2023/10/06 01:16:26;;;;;;;8.88;2.25;;;;;;;;;;5054448;28;20048;-70
2023/10/06 01:19:00;;;;;;;4.80;1.90;;;;;;;;;;5054189;28;20077;-70
2023/10/06 01:21:28;;;;;;;7.60;1.90;;;;;;;;;;5054191;28;20036;-70
2023/10/06 01:23:58;;;;;;;7.32;1.90;;;;;;;;;;5054096;28;20029;-71
2023/10/06 01:26:24;;;;;;;4.25;2.10;;;;;;;;;;5054221;28;20021;-71
2023/10/06 01:28:49;;;;;;;5.13;1.90;;;;;;;;;;5054079;28;20392;-71
2023/10/06 01:31:14;;;;;;;6.35;2.33;;;;;;;;;;5053910;28;20105;-70
2023/10/06 01:33:39;;;;;;;3.75;2.03;;;;;;;;;;5053964;28;20361;-71
2023/10/06 01:36:13;;;;;;;5.90;2.20;;;;;;;;;;5053990;28;20108;-71
2023/10/06 01:38:41;;;;;;;5.28;1.80;;;;;;;;;;5053833;28;20112;-70
2023/10/06 01:41:06;;;;;;;8.45;2.22;;;;;;;;;;5053697;28;20083;-70
2023/10/06 01:43:33;;;;;;;5.40;1.70;;;;;;;;;;5053963;28;20029;-70
2023/10/06 01:45:59;;;;;;;4.03;1.90;;;;;;;;;;5052307;28;20502;-71
2023/10/06 01:48:24;;;;;;;5.93;1.98;;;;;;;;;;5053889;28;20475;-71
2023/10/06 01:50:50;;;;;;;5.25;2.03;;;;;;;;;;5053300;28;20025;-71
2023/10/06 01:53:19;;;;;;;4.88;1.98;;;;;;;;;;5052581;28;20052;-70
2023/10/06 01:55:49;;;;;;;5.90;2.10;;;;;;;;;;5053368;28;20403;-70
2023/10/06 01:58:15;;;;;;;4.18;1.70;;;;;;;;;;5053330;28;20423;-71
2023/10/06 02:00:41;;;;;;;3.67;1.95;;;;;;;;;;5053284;28;20025;-71
2023/10/06 02:03:10;;;;;;;4.10;2.00;;;;;;;;;;5052053;28;20067;-70
2023/10/06 02:05:38;;;;;;;6.88;2.03;;;;;;;;;;5051997;28;20024;-70
2023/10/06 02:08:05;;;;;;;7.07;2.38;;;;;;;;;;5053346;28;20460;-71
2023/10/06 02:10:32;;;;;;;5.00;2.30;;;;;;;;;;5053104;28;20028;-71
2023/10/06 02:12:58;;;;;;;5.40;2.10;;;;;;;;;;5052967;28;20077;-71
2023/10/06 02:15:24;;;;;;;5.10;1.92;;;;;;;;;;5053291;28;20028;-71
2023/10/06 02:17:50;;;;;;;7.60;2.35;;;;;;;;;;5053059;28;20399;-71
2023/10/06 02:22:58;;;;;;;6.88;2.42;;;;;;;;;;5053657;28;20525;-71
2023/10/06 02:25:25;;;;;;;5.00;2.33;;;;;;;;;;5053193;28;20029;-70
2023/10/06 02:27:50;;;;;;;7.45;2.00;;;;;;;;;;5051642;28;20032;-70
2023/10/06 02:30:24;;;;;;;8.25;2.25;;;;;;;;;;5052834;28;20017;-71
2023/10/06 02:32:51;;;;;;;5.85;2.30;;;;;;;;;;5053447;28;20048;-71
2023/10/06 02:35:17;;;;;;;5.90;2.45;;;;;;;;;;5052783;28;20031;-70
2023/10/06 02:37:45;;;;;;;5.50;2.28;;;;;;;;;;5052863;28;20025;-71
2023/10/06 02:40:11;;;;;;;5.82;2.10;;;;;;;;;;5051357;28;20024;-70
2023/10/06 02:42:46;;;;;;;6.72;2.30;;;;;;;;;;5053009;28;20100;-70
2023/10/06 02:45:19;;;;;;;6.70;2.50;;;;;;;;;;5051454;28;20476;-71
2023/10/06 02:47:45;;;;;;;5.03;2.20;;;;;;;;;;5053022;28;20029;-70
2023/10/06 02:50:19;;;;;;;3.78;2.03;;;;;;;;;;5052774;28;20033;-70
2023/10/06 02:52:46;;;;;;;6.32;2.08;;;;;;;;;;5052933;28;20452;-70
2023/10/06 02:55:12;;;;;;;10.15;2.47;;;;;;;;;;5052537;28;20021;-70
2023/10/06 02:57:41;;;;;;;5.47;2.20;;;;;;;;;;5052897;28;20025;-71
2023/10/06 03:02:44;;;;;;;6.75;2.20;;;;;;;;;;5052598;28;20021;-71
2023/10/06 03:05:12;;;;;;;4.97;2.13;;;;;;;;;;5052791;28;20467;-70
2023/10/06 03:07:38;;;;;;;4.30;1.92;;;;;;;;;;5052785;28;20033;-71
2023/10/06 03:10:08;;;;;;;4.47;2.03;;;;;;;;;;5051101;28;20203;-71
2023/10/06 03:12:34;;;;;;;4.78;2.17;;;;;;;;;;5053040;28;20107;-71
2023/10/06 03:15:00;;;;;;;6.35;2.25;;;;;;;;;;5051663;28;20611;-71
2023/10/06 03:17:26;;;;;;;7.35;2.40;;;;;;;;;;5052756;28;20021;-70
2023/10/06 03:20:10;;;;;;;7.32;2.47;;;;;;;;;;5052872;28;20025;-71
2023/10/06 03:22:37;;;;;;;4.65;2.10;;;;;;;;;;5052806;28;20025;-70
2023/10/06 03:25:17;;;;;;;5.88;2.13;;;;;;;;;;5055769;28;20020;-71
2023/10/06 03:27:44;;;;;;;6.03;2.03;;;;;;;;;;5056232;28;20025;-70
2023/10/06 03:30:18;;;;;;;5.40;2.42;;;;;;;;;;5055226;28;20021;-70
2023/10/06 03:32:48;;;;;;;7.93;2.05;;;;;;;;;;5055456;28;20549;-70
2023/10/06 03:38:08;;;;;;;5.28;2.38;;;;;;;;;;5056170;28;20453;-71
2023/10/06 03:40:46;;;;;;;3.47;2.00;;;;;;;;;;5056107;28;20055;-71
2023/10/06 03:43:14;;;;;;;3.95;2.03;;;;;;;;;;5054676;28;20029;-71
2023/10/06 03:45:43;;;;;;;7.68;2.40;;;;;;;;;;5056171;28;20108;-71
2023/10/06 03:48:11;;;;;;;4.32;2.10;;;;;;;;;;5055873;28;20052;-71
2023/10/06 03:50:41;;;;;;;5.10;2.28;;;;;;;;;;5055700;28;20132;-70
2023/10/06 03:53:11;;;;;;;4.80;2.10;;;;;;;;;;5054598;28;20020;-70
2023/10/06 03:55:40;;;;;;;3.67;1.88;;;;;;;;;;5055752;28;20021;-70
2023/10/06 03:58:07;;;;;;;6.10;2.33;;;;;;;;;;5054426;28;20025;-70
2023/10/06 04:00:38;;;;;;;5.25;2.20;;;;;;;;;;5054366;28;20021;-71
2023/10/06 04:03:05;;;;;;;9.18;2.42;;;;;;;;;;5055924;28;20048;-70
2023/10/06 04:05:37;;;;;;;5.88;2.08;;;;;;;;;;5054398;28;20021;-70
2023/10/06 04:08:07;;;;;;;7.38;2.00;;;;;;;;;;5055593;28;20040;-70
2023/10/06 04:10:34;;;;;;;4.78;2.08;;;;;;;;;;5055365;28;20020;-71
2023/10/06 04:12:59;;;;;;;3.97;2.05;;;;;;;;;;5055538;28;20052;-71
2023/10/06 04:15:26;;;;;;;7.28;2.17;;;;;;;;;;5055284;28;20476;-71
2023/10/06 04:17:51;;;;;;;8.75;1.92;;;;;;;;;;5055319;28;20029;-71
2023/10/06 04:20:17;;;;;;;5.53;2.15;;;;;;;;;;5055164;28;20029;-71
2023/10/06 04:22:42;;;;;;;5.53;2.08;;;;;;;;;;5055439;28;20430;-70
2023/10/06 04:25:10;;;;;;;6.05;2.13;;;;;;;;;;5053882;28;20120;-71
2023/10/06 04:27:36;;;;;;;3.67;2.00;;;;;;;;;;5053785;28;20028;-70
2023/10/06 04:30:04;;;;;;;4.15;2.20;;;;;;;;;;5055317;28;20488;-70
2023/10/06 04:32:29;;;;;;;7.00;2.25;;;;;;;;;;5055274;28;20103;-71
2023/10/06 04:34:55;;;;;;;4.47;2.15;;;;;;;;;;5054459;28;20495;-70
2023/10/06 04:37:20;;;;;;;4.90;2.03;;;;;;;;;;5055265;28;20025;-70
2023/10/06 04:39:45;;;;;;;9.33;2.10;;;;;;;;;;5054928;28;20028;-70
2023/10/06 04:42:10;;;;;;;4.67;1.93;;;;;;;;;;5054858;28;20265;-70
2023/10/06 04:44:36;;;;;;;6.13;2.15;;;;;;;;;;5055093;28;20262;-71
2023/10/06 04:47:01;;;;;;;4.97;2.03;;;;;;;;;;5055318;28;20044;-69
2023/10/06 04:49:28;;;;;;;6.28;2.13;;;;;;;;;;5053323;28;20047;-70
2023/10/06 04:51:54;;;;;;;8.52;2.00;;;;;;;;;;5054945;28;20029;-70
2023/10/06 04:54:20;;;;;;;6.45;1.95;;;;;;;;;;5053403;28;20073;-71
2023/10/06 04:56:45;;;;;;;5.10;2.00;;;;;;;;;;5054625;28;20021;-71
2023/10/06 04:59:11;;;;;;;5.70;2.03;;;;;;;;;;5054608;28;20035;-71
2023/10/06 05:01:36;;;;;;;8.93;2.10;;;;;;;;;;5054451;28;20028;-70
2023/10/06 05:04:06;;;;;;;4.80;1.83;;;;;;;;;;5054561;28;20025;-71
2023/10/06 05:06:32;;;;;;;5.82;2.05;;;;;;;;;;5053442;28;20021;-71
2023/10/06 05:08:57;;;;;;;7.50;1.90;;;;;;;;;;5054415;28;20392;-71
2023/10/06 05:11:23;;;;;;;4.22;2.00;;;;;;;;;;5054346;28;20033;-72
2023/10/06 05:13:52;;;;;;;4.10;2.10;;;;;;;;;;5053040;28;20029;-70
2023/10/06 05:16:19;;;;;;;5.18;2.22;;;;;;;;;;5054220;28;20021;-70
2023/10/06 05:18:45;;;;;;;5.55;2.20;;;;;;;;;;5052890;28;20025;-71
2023/10/06 05:21:11;;;;;;;7.88;2.17;;;;;;;;;;5054070;28;20042;-71
2023/10/06 05:23:37;;;;;;;7.38;2.28;;;;;;;;;;5054438;28;20025;-71
2023/10/06 05:26:08;;;;;;;6.15;2.00;;;;;;;;;;5054048;28;20619;-72
2023/10/06 05:28:34;;;;;;;6.88;2.20;;;;;;;;;;5054357;28;20476;-71
2023/10/06 05:30:59;;;;;;;4.22;1.75;;;;;;;;;;5053769;28;20032;-71
2023/10/06 05:33:27;;;;;;;7.75;2.08;;;;;;;;;;5054138;28;20559;-70
2023/10/06 05:35:52;;;;;;;5.47;2.10;;;;;;;;;;5054071;28;20041;-71
2023/10/06 05:38:19;;;;;;;7.25;2.20;;;;;;;;;;5052507;28;20445;-71
2023/10/06 05:40:46;;;;;;;9.23;2.42;;;;;;;;;;5052405;28;20029;-71
2023/10/06 05:43:12;;;;;;;4.80;2.08;;;;;;;;;;5053829;28;20507;-70
2023/10/06 05:45:39;;;;;;;6.40;2.20;;;;;;;;;;5053266;28;20029;-71
2023/10/06 05:48:08;;;;;;;6.50;2.05;;;;;;;;;;5053579;28;20021;-71
2023/10/06 05:50:35;;;;;;;11.63;2.17;;;;;;;;;;5053414;28;20114;-71
2023/10/06 05:53:19;;;;;;;7.88;2.25;;;;;;;;;;5053466;28;20029;-71
2023/10/06 05:55:49;;;;;;;7.78;2.20;;;;;;;;;;5053408;28;20430;-70
2023/10/06 05:58:14;;;;;;;5.65;2.22;;;;;;;;;;5053324;28;20029;-71
2023/10/06 06:01:06;;;;;;;4.55;2.03;;;;;;;;;;5051961;28;20044;-70
2023/10/06 06:03:30;;;;;;;5.90;2.17;;;;;;;;;;5053381;28;20040;-70
2023/10/06 06:06:02;;;;;;;8.07;2.33;;;;;;;;;;5051964;28;20108;-72
2023/10/06 06:08:30;;;;;;;4.65;2.25;;;;;;;;;;5053479;28;20029;-70
2023/10/06 06:10:55;;;;;;;7.28;2.45;;;;;;;;;;5051763;28;20412;-70
2023/10/06 06:13:21;;;;;;;8.15;2.15;;;;;;;;;;5053397;28;20111;-70
2023/10/06 06:15:48;;;;;;;13.77;2.70;;;;;;;;;;5052961;28;20021;-70
2023/10/06 06:18:13;;;;;;;13.68;2.40;;;;;;;;;;5052859;28;20059;-71
2023/10/06 06:20:41;;;;;;;12.68;2.70;;;;;;;;;;5052939;28;20017;-70
2023/10/06 06:23:08;;;;;;;7.03;2.25;;;;;;;;;;5053209;28;20029;-70
2023/10/06 06:25:37;;;;;;;6.30;2.30;;;;;;;;;;5051791;28;20029;-70
2023/10/06 06:28:05;;;;;;;8.07;2.65;;;;;;;;;;5052920;28;20032;-71
2023/10/06 06:30:33;;;;;;;11.50;2.63;;;;;;;;;;5051532;28;20037;-70
2023/10/06 06:33:01;;;;;;;5.85;2.25;;;;;;;;;;5051709;28;20128;-71
2023/10/06 06:35:28;;;;;;;10.75;2.47;;;;;;;;;;5052725;28;20073;-70
2023/10/06 06:37:59;;;;;;;6.38;2.22;;;;;;;;;;5053007;28;20052;-70
2023/10/06 06:40:26;;;;;;;6.30;2.38;;;;;;;;;;5051489;28;20021;-70
2023/10/06 06:42:52;;;;;;;7.15;2.92;;;;;;;;;;5052872;28;20044;-71
2023/10/06 06:45:17;;;;;;;4.95;2.00;;;;;;;;;;5052666;28;20028;-71
2023/10/06 06:47:43;;;;;;;7.47;2.28;;;;;;;;;;5052882;28;20036;-71
2023/10/06 06:50:15;;;;;;;7.45;2.42;;;;;;;;;;5052606;28;20032;-70
2023/10/06 06:52:42;;;;;;;8.70;2.20;;;;;;;;;;5051276;28;20025;-71
2023/10/06 06:55:12;;;;;;;5.68;2.08;;;;;;;;;;5053237;28;20028;-71
2023/10/06 06:57:45;;;;;;;6.22;2.10;;;;;;;;;;5054701;28;20020;-71
2023/10/06 07:00:15;;;;;;;9.00;2.38;;;;;;;;;;5059418;28;20060;-70
2023/10/06 07:02:44;;;;;;;4.57;1.63;;;;;;;;;;5059999;28;20051;-71
2023/10/06 07:05:14;;;;;;;3.60;1.80;;;;;;;;;;5059068;28;20507;-70
2023/10/06 07:07:42;;;;;;;8.82;2.30;;;;;;;;;;5059316;28;20033;-70
2023/10/06 07:10:13;;;;;;;5.00;1.80;;;;;;;;;;5060044;28;20498;-70
2023/10/06 07:12:39;;;;;;;6.22;2.25;;;;;;;;;;5059051;28;20036;-70
2023/10/06 07:15:09;;;;;;;3.83;2.17;;;;;;;;;;5058994;28;20031;-70
2023/10/06 07:17:34;;;;;;;7.82;2.20;;;;;;;;;;5059901;28;20021;-70
2023/10/06 07:20:00;;;;;;;4.15;1.90;;;;;;;;;;5058947;28;20558;-70
2023/10/06 07:22:31;;;;;;;5.72;2.03;;;;;;;;;;5058865;28;20040;-70
2023/10/06 07:24:57;;;;;;;6.68;2.22;;;;;;;;;;5057710;28;20506;-70
2023/10/06 07:27:23;;;;;;;9.43;2.30;;;;;;;;;;5057612;28;20164;-70
2023/10/06 07:29:52;;;;;;;4.30;2.03;;;;;;;;;;5059422;28;20035;-70
2023/10/06 07:32:18;;;;;;;9.13;2.67;;;;;;;;;;5059010;28;20464;-70
2023/10/06 07:34:44;;;;;;;8.60;2.13;;;;;;;;;;5058407;28;20039;-70
2023/10/06 07:37:10;;;;;;;4.88;1.95;;;;;;;;;;5058707;28;20476;-71
2023/10/06 07:39:36;;;;;;;7.90;2.20;;;;;;;;;;5058745;28;20021;-70
2023/10/06 07:42:06;;;;;;;5.28;2.10;;;;;;;;;;5057532;28;20039;-70
2023/10/06 07:44:33;;;;;;;7.22;2.28;;;;;;;;;;5059036;28;20434;-70
2023/10/06 07:46:58;;;;;;;7.90;2.40;;;;;;;;;;5058812;28;20177;-70
2023/10/06 07:49:23;;;;;;;6.15;2.25;;;;;;;;;;5058666;28;20025;-71
2023/10/06 07:51:49;;;;;;;3.60;1.95;;;;;;;;;;5058755;28;20061;-72
2023/10/06 07:54:15;;;;;;;9.60;1.97;;;;;;;;;;5058708;28;20051;-70
2023/10/06 07:56:42;;;;;;;5.90;1.98;;;;;;;;;;5057183;28;20308;-71
2023/10/06 07:59:07;;;;;;;6.00;2.08;;;;;;;;;;5058620;28;20163;-71
2023/10/06 08:01:34;;;;;;;4.33;1.93;;;;;;;;;;5058780;28;20063;-71
2023/10/06 08:04:00;;;;;;;6.13;1.88;;;;;;;;;;5058598;28;20349;-71
2023/10/06 08:06:25;;;;;;;9.88;2.35;;;;;;;;;;5058506;28;20075;-71
2023/10/06 08:08:51;;;;;;;6.90;2.10;;;;;;;;;;5057216;28;20026;-70
2023/10/06 08:11:16;;;;;;;6.03;2.22;;;;;;;;;;5055082;28;20051;-70
2023/10/06 08:13:42;;;;;;;4.40;1.95;;;;;;;;;;5055320;28;20476;-71
2023/10/06 08:16:07;;;;;;;10.23;2.15;;;;;;;;;;5053843;28;20029;-71
2023/10/06 08:18:32;;;;;;;11.10;2.00;;;;;;;;;;5055215;28;20024;-70
2023/10/06 08:21:00;;;;;;;4.97;1.90;;;;;;;;;;5055112;28;20441;-70
2023/10/06 08:23:26;;;;;;;4.35;2.05;;;;;;;;;;5053828;28;20029;-71
2023/10/06 08:25:56;;;;;;;6.10;2.30;;;;;;;;;;5055050;28;20495;-71
2023/10/06 08:28:26;;;;;;;7.47;2.00;;;;;;;;;;5055217;28;20495;-71
2023/10/06 08:30:51;;;;;;;7.80;2.13;;;;;;;;;;5054940;28;20020;-71
2023/10/06 08:33:16;;;;;;;6.80;2.17;;;;;;;;;;5054955;28;20491;-70
2023/10/06 08:35:42;;;;;;;4.68;2.00;;;;;;;;;;5054876;28;20087;-70
2023/10/06 08:38:07;;;;;;;5.53;2.25;;;;;;;;;;5054869;28;20134;-70
2023/10/06 08:40:36;;;;;;;8.50;2.05;;;;;;;;;;5054791;28;20090;-72
2023/10/06 08:43:02;;;;;;;5.18;1.88;;;;;;;;;;5053495;28;20495;-70
2023/10/06 08:45:28;;;;;;;4.65;1.73;;;;;;;;;;5055035;28;20088;-71
2023/10/06 08:47:59;;;;;;;9.40;2.13;;;;;;;;;;5054750;28;20025;-70
2023/10/06 08:50:28;;;;;;;8.00;1.90;;;;;;;;;;5053224;28;20129;-71
2023/10/06 08:52:55;;;;;;;6.28;2.58;;;;;;;;;;5054625;28;20397;-71
2023/10/06 08:55:23;;;;;;;5.60;1.80;;;;;;;;;;5054641;28;20120;-70
2023/10/06 08:57:50;;;;;;;6.18;1.92;;;;;;;;;;5054463;28;20103;-70
2023/10/06 09:00:17;;;;;;;4.30;1.77;;;;;;;;;;5054404;28;20491;-70
2023/10/06 09:02:48;;;;;;;5.63;2.00;;;;;;;;;;5054844;28;20062;-71
2023/10/06 09:05:16;;;;;;;6.65;1.70;;;;;;;;;;5053081;28;20123;-71
2023/10/06 09:08:06;;;;;;;5.50;2.10;;;;;;;;;;5054785;28;20028;-70
2023/10/06 09:10:36;;;;;;;4.20;1.95;;;;;;;;;;5054471;28;20032;-70
2023/10/06 09:13:04;;;;;;;4.25;1.63;;;;;;;;;;5054231;28;20070;-71
2023/10/06 09:15:30;;;;;;;5.75;1.98;;;;;;;;;;5052864;28;20167;-71
2023/10/06 09:17:57;;;;;;;5.35;2.00;;;;;;;;;;5054180;28;20021;-71
2023/10/06 09:20:31;;;;;;;5.45;1.90;;;;;;;;;;5052220;28;20032;-70
2023/10/06 09:22:58;;;;;;;2.72;1.58;;;;;;;;;;5053534;28;20021;-71
2023/10/06 09:25:24;;;;;;;4.15;1.63;;;;;;;;;;5053931;28;20040;-71
2023/10/06 09:28:04;;;;;;;3.35;1.50;;;;;;;;;;5053911;28;20443;-70
2023/10/06 09:30:30;;;;;;;3.47;1.48;;;;;;;;;;5052511;28;20033;-71
2023/10/06 09:33:02;;;;;;;7.80;1.70;;;;;;;;;;5054166;28;20020;-71
2023/10/06 09:35:28;;;;;;;2.85;1.50;;;;;;;;;;5053672;28;20483;-71
2023/10/06 09:38:08;;;;;;;5.10;1.70;;;;;;;;;;5053717;28;20083;-70
2023/10/06 09:40:41;;;;;;;5.32;2.05;;;;;;;;;;5053892;28;20032;-71
2023/10/06 09:43:11;;;;;;;2.97;1.20;;;;;;;;;;5053974;28;20025;-71
2023/10/06 09:45:36;;;;;;;2.88;1.20;;;;;;;;;;5052291;28;20116;-72
2023/10/06 09:48:05;;;;;;;2.20;1.05;;;;;;;;;;5053670;28;20071;-71
2023/10/06 09:50:31;;;;;;;2.35;1.30;;;;;;;;;;5053397;28;20075;-71
2023/10/06 09:53:03;;;;;;;3.65;1.25;;;;;;;;;;5052082;28;20032;-71
2023/10/06 09:55:30;;;;;;;1.95;1.15;;;;;;;;;;5052165;28;20052;-71
2023/10/06 09:57:57;;;;;;;2.78;1.25;;;;;;;;;;5053735;28;20472;-72
2023/10/06 10:00:24;;;;;;;8.25;1.40;;;;;;;;;;5053328;28;20086;-72
2023/10/06 10:02:50;;;;;;;2.65;1.20;;;;;;;;;;5053387;28;20102;-71
2023/10/06 10:05:20;;;;;;;3.63;1.58;;;;;;;;;;5052083;28;20480;-71
2023/10/06 10:07:48;;;;;;;3.97;1.38;;;;;;;;;;5053210;28;20070;-71
2023/10/06 10:10:15;;;;;;;4.25;1.60;;;;;;;;;;5053218;28;20037;-71
2023/10/06 10:12:53;;;;;;;4.63;1.48;;;;;;;;;;5053530;28;20104;-71
2023/10/06 10:15:42;;;;;;;3.85;1.50;;;;;;;;;;5053215;28;20107;-71
2023/10/06 10:18:25;;;;;;;3.45;1.70;;;;;;;;;;5052429;28;20407;-71
2023/10/06 10:20:52;;;;;;;3.70;1.50;;;;;;;;;;5053053;28;20025;-71
2023/10/06 10:23:18;;;;;;;3.13;1.50;;;;;;;;;;5052130;28;20116;-71
2023/10/06 10:25:44;;;;;;;2.30;1.10;;;;;;;;;;5053213;28;20155;-71
2023/10/06 10:28:19;;;;;;;2.90;1.20;;;;;;;;;;5052888;28;20376;-71
2023/10/06 10:30:59;;;;;;;5.78;1.60;;;;;;;;;;5052918;28;20048;-71
2023/10/06 10:33:29;;;;;;;3.10;1.38;;;;;;;;;;5052875;28;20023;-71
2023/10/06 10:36:18;;;;;;;4.03;1.58;;;;;;;;;;5053899;28;20418;-71
2023/10/06 10:38:44;;;;;;;5.07;1.75;;;;;;;;;;5050217;28;20037;-71
2023/10/06 10:41:11;;;;;;;3.45;1.60;;;;;;;;;;5052805;28;20025;-71
2023/10/06 10:43:48;;;;;;;3.38;1.90;;;;;;;;;;5053035;28;20488;-71
2023/10/06 10:46:30;;;;;;;3.92;1.58;;;;;;;;;;5053098;28;20025;-71
2023/10/06 10:48:58;;;;;;;2.35;1.58;;;;;;;;;;5052934;28;20032;-71
2023/10/06 10:51:24;;;;;;;5.55;1.65;;;;;;;;;;5051482;28;20086;-71
2023/10/06 10:53:52;;;;;;;4.13;1.80;;;;;;;;;;5052692;28;20395;-71
2023/10/06 10:56:25;;;;;;;3.47;1.80;;;;;;;;;;5053229;28;20049;-71
2023/10/06 10:58:50;;;;;;;3.85;1.67;;;;;;;;;;5051359;28;20032;-71
2023/10/06 11:01:29;;;;;;;4.47;1.80;;;;;;;;;;5052517;28;20021;-71
2023/10/06 11:04:12;;;;;;;3.92;1.75;;;;;;;;;;5053021;28;20250;-71
2023/10/06 11:06:43;;;;;;;4.05;1.75;;;;;;;;;;5051189;28;20119;-71
2023/10/06 11:09:23;;;;;;;4.07;1.65;;;;;;;;;;5051340;28;20112;-71
2023/10/06 11:11:48;;;;;;;5.18;1.95;;;;;;;;;;5051131;28;20021;-71
2023/10/06 11:14:14;;;;;;;3.72;1.90;;;;;;;;;;5052587;28;20020;-71
2023/10/06 11:16:46;;;;;;;3.95;1.88;;;;;;;;;;5052536;28;20035;-71
2023/10/06 11:19:15;;;;;;;3.67;1.80;;;;;;;;;;5052752;28;20029;-71
2023/10/06 11:21:44;;;;;;;4.10;1.73;;;;;;;;;;5052518;28;20387;-71
2023/10/06 11:24:10;;;;;;;3.38;1.90;;;;;;;;;;5052271;28;20052;-71
2023/10/06 11:26:36;;;;;;;3.80;1.90;;;;;;;;;;5051068;28;20021;-71
2023/10/06 11:29:02;;;;;;;3.80;2.00;;;;;;;;;;5052344;28;20057;-71
2023/10/06 11:31:28;;;;;;;5.18;2.10;;;;;;;;;;5052269;28;20490;-71
2023/10/06 11:33:55;;;;;;;4.10;1.85;;;;;;;;;;5052396;28;20083;-72
2023/10/06 11:36:21;;;;;;;5.88;2.30;;;;;;;;;;5051009;28;20028;-71
2023/10/06 11:38:46;;;;;;;4.57;2.00;;;;;;;;;;5052285;28;20365;-71
2023/10/06 11:41:21;;;;;;;5.88;2.40;;;;;;;;;;5052088;28;20047;-71
2023/10/06 11:43:54;;;;;;;6.20;2.17;;;;;;;;;;5052396;28;20033;-71
2023/10/06 11:46:19;;;;;;;6.03;1.87;;;;;;;;;;5054714;28;20036;-71
2023/10/06 11:48:44;;;;;;;5.35;2.50;;;;;;;;;;5056073;28;20399;-72
2023/10/06 11:51:12;;;;;;;7.55;2.53;;;;;;;;;;5054578;28;20497;-71
2023/10/06 11:53:40;;;;;;;4.90;2.38;;;;;;;;;;5055880;28;20434;-71
2023/10/06 11:56:15;;;;;;;5.22;2.40;;;;;;;;;;5055728;28;20112;-72
2023/10/06 11:58:42;;;;;;;6.63;2.50;;;;;;;;;;5054477;28;20036;-71
2023/10/06 12:01:31;;;;;;;9.40;2.53;;;;;;;;;;5054380;28;20094;-71
2023/10/06 12:03:59;;;;;;;10.30;2.60;;;;;;;;;;5055991;28;20017;-71
2023/10/06 12:06:27;;;;;;;5.57;2.50;;;;;;;;;;5054368;28;20115;-71
2023/10/06 12:08:52;;;;;;;6.03;2.60;;;;;;;;;;5055611;28;20021;-72
2023/10/06 12:11:20;;;;;;;5.35;2.75;;;;;;;;;;5054186;28;20111;-71
2023/10/06 12:13:46;;;;;;;5.75;2.28;;;;;;;;;;5054271;28;20439;-71
2023/10/06 12:16:15;;;;;;;5.18;2.38;;;;;;;;;;5055728;28;20113;-72
2023/10/06 12:18:44;;;;;;;6.07;2.53;;;;;;;;;;5055505;28;20444;-71
2023/10/06 12:21:14;;;;;;;5.13;2.45;;;;;;;;;;5055263;28;20044;-71
2023/10/06 12:23:42;;;;;;;5.75;2.22;;;;;;;;;;5055289;28;20494;-71
2023/10/06 12:26:07;;;;;;;5.45;2.72;;;;;;;;;;5055352;28;20545;-70
2023/10/06 12:28:32;;;;;;;7.20;3.22;;;;;;;;;;5055333;28;20029;-71
2023/10/06 12:30:58;;;;;;;4.82;2.42;;;;;;;;;;5055514;28;20028;-72
2023/10/06 12:33:23;;;;;;;4.57;2.28;;;;;;;;;;5053941;28;20052;-71
2023/10/06 12:35:52;;;;;;;6.20;2.60;;;;;;;;;;5055120;28;20032;-71
2023/10/06 12:38:18;;;;;;;5.40;2.47;;;;;;;;;;5055365;28;20545;-71
2023/10/06 12:40:46;;;;;;;7.13;2.85;;;;;;;;;;5053737;28;20056;-71
2023/10/06 12:43:12;;;;;;;5.25;2.63;;;;;;;;;;5054895;28;20021;-71
2023/10/06 12:45:38;;;;;;;5.25;2.42;;;;;;;;;;5055231;28;20047;-71
2023/10/06 12:48:04;;;;;;;4.55;2.63;;;;;;;;;;5053704;28;20021;-71
2023/10/06 12:50:30;;;;;;;8.52;2.60;;;;;;;;;;5054763;28;20079;-71
2023/10/06 12:52:55;;;;;;;5.07;2.65;;;;;;;;;;5053528;28;20434;-71
2023/10/06 12:55:22;;;;;;;8.63;2.08;;;;;;;;;;5054662;28;20028;-71
2023/10/06 12:57:49;;;;;;;6.13;2.33;;;;;;;;;;5054709;28;20518;-71
2023/10/06 13:00:15;;;;;;;6.32;2.40;;;;;;;;;;5055085;28;20051;-71
2023/10/06 13:02:41;;;;;;;5.10;2.30;;;;;;;;;;5054955;28;20542;-71
2023/10/06 13:05:22;;;;;;;8.50;2.53;;;;;;;;;;5054824;28;20029;-71
2023/10/06 13:07:48;;;;;;;5.53;2.28;;;;;;;;;;5054944;28;20036;-71
2023/10/06 13:10:21;;;;;;;5.13;2.10;;;;;;;;;;5054674;28;20387;-71
2023/10/06 13:12:47;;;;;;;6.63;2.15;;;;;;;;;;5053200;28;20032;-71
2023/10/06 13:15:14;;;;;;;3.83;1.70;;;;;;;;;;5054521;28;20029;-71
2023/10/06 13:17:40;;;;;;;4.35;1.80;;;;;;;;;;5054395;28;20054;-71
2023/10/06 13:20:10;;;;;;;6.53;2.13;;;;;;;;;;5054350;28;20030;-71
2023/10/06 13:22:38;;;;;;;3.90;1.90;;;;;;;;;;5054176;28;20079;-71
2023/10/06 13:25:06;;;;;;;4.10;2.03;;;;;;;;;;5054300;28;20117;-71
2023/10/06 13:27:31;;;;;;;6.30;1.88;;;;;;;;;;5052936;28;20021;-71
2023/10/06 13:29:57;;;;;;;4.90;1.83;;;;;;;;;;5054452;28;20452;-71
2023/10/06 13:32:22;;;;;;;5.20;2.00;;;;;;;;;;5053962;28;20078;-71
2023/10/06 13:34:47;;;;;;;4.32;2.10;;;;;;;;;;5054229;28;20028;-71
2023/10/06 13:37:14;;;;;;;4.97;1.98;;;;;;;;;;5053888;28;20029;-72
2023/10/06 13:39:40;;;;;;;5.05;1.90;;;;;;;;;;5052560;28;20033;-71
2023/10/06 13:42:05;;;;;;;5.38;2.10;;;;;;;;;;5053801;28;20104;-71
2023/10/06 13:44:31;;;;;;;10.87;2.40;;;;;;;;;;5052627;28;20452;-71
2023/10/06 13:46:56;;;;;;;3.67;2.08;;;;;;;;;;5053838;28;20281;-68
2023/10/06 13:49:22;;;;;;;5.25;1.90;;;;;;;;;;5053544;28;20035;-71
2023/10/06 13:51:47;;;;;;;5.28;1.92;;;;;;;;;;5054313;28;20103;-71
2023/10/06 13:54:13;;;;;;;4.25;1.90;;;;;;;;;;5053606;28;20495;-71
2023/10/06 13:56:39;;;;;;;3.05;1.80;;;;;;;;;;5053740;28;20478;-72
2023/10/06 13:59:05;;;;;;;3.80;2.05;;;;;;;;;;5054028;28;20059;-71
2023/10/06 14:01:33;;;;;;;5.05;2.10;;;;;;;;;;5052227;28;20020;-71
2023/10/06 14:03:59;;;;;;;6.43;2.05;;;;;;;;;;5053564;28;20621;-71
2023/10/06 14:06:24;;;;;;;4.05;2.08;;;;;;;;;;5053538;28;20108;-72
2023/10/06 14:08:49;;;;;;;7.13;2.00;;;;;;;;;;5052895;28;20021;-71
2023/10/06 14:11:15;;;;;;;4.37;1.97;;;;;;;;;;5053607;28;20024;-71
2023/10/06 14:13:43;;;;;;;4.65;2.53;;;;;;;;;;5053313;28;20341;-71
2023/10/06 14:16:09;;;;;;;4.15;2.08;;;;;;;;;;5053330;28;20036;-71
2023/10/06 14:18:37;;;;;;;3.72;2.13;;;;;;;;;;5052539;28;20391;-71
2023/10/06 14:21:05;;;;;;;4.95;2.10;;;;;;;;;;5052110;28;20107;-72
2023/10/06 14:23:32;;;;;;;4.53;2.40;;;;;;;;;;5051968;28;20059;-71
2023/10/06 14:26:00;;;;;;;6.70;2.20;;;;;;;;;;5053966;28;20096;-71
2023/10/06 14:28:27;;;;;;;5.07;2.42;;;;;;;;;;5053429;28;20024;-71
2023/10/06 14:30:56;;;;;;;5.57;2.03;;;;;;;;;;5051756;28;20107;-71
2023/10/06 14:33:28;;;;;;;4.13;2.03;;;;;;;;;;5053372;28;20569;-71
2023/10/06 14:46:24;;;;;;;;;;;;;;;;;;5053582;28;20032;-71
2023/10/06 14:48:49;;;;;;;5.22;2.20;;;;;;;;;;5053134;28;20363;-72
2023/10/06 14:51:14;;;;;;;5.10;2.30;;;;;;;;;;5052702;28;20039;-71
2023/10/06 14:53:39;;;;;;;4.10;2.57;;;;;;;;;;5052714;28;20289;-71
2023/10/06 14:56:05;;;;;;;6.30;2.10;;;;;;;;;;5052579;28;20285;-71
2023/10/06 14:58:30;;;;;;;4.25;2.47;;;;;;;;;;5052721;28;20262;-72
2023/10/06 15:01:05;;;;;;;4.70;2.20;;;;;;;;;;5052558;28;20039;-71
2023/10/06 15:03:33;;;;;;;7.65;3.40;;;;;;;;;;5051457;28;20021;-71
2023/10/06 15:06:05;;;;;;;6.43;2.85;;;;;;;;;;5053159;28;20426;-72
2023/10/06 15:08:33;;;;;;;6.47;2.40;;;;;;;;;;5052466;28;20025;-71